Aviation Digital Data Service (ADDS)

Output produced by METARs form (1907 UTC 24 April 2014)
found at http://aviationweather.gov/adds/metars/
 
KHLG 241720Z 2418/2518 VRB04KT P6SM SCT100 
     FM251400 15010G18KT 4SM -SHRA OVC020